Time;durP1;ratioP1;P1;durP2;ratioP2;P2;SDS_P1;SDS_P2;PMS_P1;PMS_P2;Temp;Humidity;BMP_temperature;BMP_pressure;BME280_temperature;BME280_humidity;BME280_pressure;Samples;Min_cycle;Max_cycle;Signal;HPM_P1;HPM_P2
2023/12/18 00:00:11;;;;;;;;;65.75;55.75;;;;;3.29;45.04;101465.78;5025228;28;9415;-76
2023/12/18 00:03:00;;;;;;;;;69.25;58.00;;;;;3.30;45.50;101458.88;5011349;28;9637;-76
2023/12/18 00:05:29;;;;;;;;;77.50;61.50;;;;;3.35;45.36;101459.94;5029691;28;8937;-75
2023/12/18 00:07:58;;;;;;;;;76.50;62.25;;;;;3.38;45.59;101441.88;5030956;28;8867;-79
2023/12/18 00:10:27;;;;;;;;;78.25;61.75;;;;;3.43;45.10;101436.88;5010096;28;8866;-76
2023/12/18 00:12:56;;;;;;;;;80.00;61.50;;;;;3.40;45.47;101432.41;5011459;28;9646;-76
2023/12/18 00:15:27;;;;;;;;;79.00;63.25;;;;;3.30;45.36;101423.38;5009608;28;8886;-75
2023/12/18 00:17:56;;;;;;;;;74.75;60.50;;;;;3.39;45.54;101417.63;5010065;28;8846;-77
2023/12/18 00:20:25;;;;;;;;;65.00;50.00;;;;;3.45;45.36;101420.53;5026417;28;8943;-77
2023/12/18 00:22:54;;;;;;;;;81.50;64.75;;;;;3.49;44.94;101421.53;5011675;28;8846;-76
2023/12/18 00:25:23;;;;;;;;;67.50;55.25;;;;;3.49;45.35;101416.34;5009698;28;8894;-78
2023/12/18 00:27:52;;;;;;;;;82.00;64.00;;;;;3.53;45.01;101418.22;5008614;28;9643;-76
2023/12/18 00:30:22;;;;;;;;;101.00;86.25;;;;;3.25;45.84;101416.22;5010697;28;8924;-74
2023/12/18 00:32:52;;;;;;;;;88.33;68.67;;;;;3.32;45.25;101408.72;5024084;28;10125;-76
2023/12/18 00:35:21;;;;;;;;;91.25;74.00;;;;;3.33;46.25;101389.69;5007935;28;9394;-76
2023/12/18 00:37:50;;;;;;;;;84.00;66.00;;;;;2.93;46.73;101398.53;5024971;28;9726;-77
2023/12/18 00:40:19;;;;;;;;;83.00;67.33;;;;;3.15;46.55;101397.69;5024324;28;9205;-77
2023/12/18 00:42:49;;;;;;;;;84.33;67.67;;;;;3.26;46.17;101402.41;5027690;28;9256;-76
2023/12/18 00:45:18;;;;;;;;;89.00;72.67;;;;;3.31;46.13;101387.88;4980381;28;8928;-76
2023/12/18 00:47:47;;;;;;;;;84.00;66.67;;;;;3.20;46.18;101380.56;5027994;28;9551;-77
2023/12/18 00:50:17;;;;;;;;;69.00;54.25;;;;;3.02;46.53;101373.78;4994903;28;9117;-79
2023/12/18 00:52:46;;;;;;;;;79.00;59.75;;;;;2.80;46.49;101371.16;5028620;28;9607;-76
2023/12/18 00:55:15;;;;;;;;;78.50;62.00;;;;;2.66;47.42;101374.94;4991250;28;9012;-76
2023/12/18 00:57:45;;;;;;;;;81.75;63.00;;;;;2.70;47.03;101368.16;5007630;28;8850;-78
2023/12/18 01:00:19;;;;;;;;;75.25;61.00;;;;;2.74;46.71;101370.94;5009273;28;8866;-77
2023/12/18 01:02:48;;;;;;;;;78.25;62.50;;;;;2.63;47.71;101372.22;5008285;28;8873;-78
2023/12/18 01:05:19;;;;;;;;;71.25;57.25;;;;;2.62;47.64;101367.84;5010961;28;9009;-75
2023/12/18 01:07:48;;;;;;;;;74.75;61.50;;;;;2.48;48.04;101369.88;5022261;28;8856;-75
2023/12/18 01:10:17;;;;;;;;;82.25;64.50;;;;;2.51;47.74;101371.72;5028673;28;8976;-77
2023/12/18 01:12:46;;;;;;;;;85.50;68.75;;;;;2.56;48.13;101377.97;5030016;28;8851;-77
2023/12/18 01:15:15;;;;;;;;;83.25;66.25;;;;;2.72;47.47;101377.78;5044616;28;8933;-78
2023/12/18 01:17:44;;;;;;;;;92.33;69.33;;;;;2.78;47.28;101372.81;5012070;28;8946;-77
2023/12/18 01:20:13;;;;;;;;;90.33;71.00;;;;;2.96;46.80;101372.69;5029377;28;9102;-75
2023/12/18 01:22:44;;;;;;;;;101.75;91.75;;;;;3.07;47.07;101365.31;5026496;28;9330;-76
2023/12/18 01:25:23;;;;;;;;;103.50;91.00;;;;;3.15;46.71;101363.03;5012436;28;10276;-76
2023/12/18 01:27:53;;;;;;;;;101.25;84.25;;;;;3.23;46.56;101352.91;5029468;28;11162;-76
2023/12/18 01:30:21;;;;;;;;;92.00;73.00;;;;;3.24;46.04;101358.19;5026349;28;10207;-76
2023/12/18 01:32:51;;;;;;;;;52.00;42.33;;;;;3.22;45.78;101356.34;5009702;28;9718;-75
2023/12/18 01:35:20;;;;;;;;;71.75;53.75;;;;;3.24;45.84;101357.28;5009305;28;9197;-76
2023/12/18 01:37:50;;;;;;;;;76.75;61.00;;;;;3.23;46.08;101353.78;5010222;28;8850;-76
2023/12/18 01:40:19;;;;;;;;;60.00;51.50;;;;;3.23;46.05;101355.53;5009934;28;8882;-75
2023/12/18 01:42:48;;;;;;;;;59.25;47.50;;;;;3.29;45.40;101355.75;5008967;28;8890;-76
2023/12/18 01:45:17;;;;;;;;;49.00;43.00;;;;;3.30;45.52;101352.31;5024634;28;8884;-78
2023/12/18 01:47:46;;;;;;;;;66.00;49.50;;;;;3.36;45.45;101345.63;5009773;28;8842;-78
2023/12/18 01:50:16;;;;;;;;;61.50;51.50;;;;;3.43;45.54;101348.50;5009010;28;8847;-75
2023/12/18 01:52:46;;;;;;;;;58.25;46.75;;;;;3.46;45.45;101346.00;5026442;28;8855;-79
2023/12/18 01:55:17;;;;;;;;;68.50;55.25;;;;;3.50;45.86;101340.09;5032411;28;9387;-75
2023/12/18 01:57:47;;;;;;;;;67.00;55.00;;;;;3.42;45.10;101341.53;5014269;28;8847;-75
2023/12/18 02:00:17;;;;;;;;;64.25;54.00;;;;;3.37;45.14;101341.31;5033305;28;8899;-76
2023/12/18 02:02:48;;;;;;;;;41.75;32.75;;;;;3.39;45.79;101342.25;5028517;28;8860;-76
2023/12/18 02:05:17;;;;;;;;;80.00;63.00;;;;;3.38;45.53;101341.38;5028816;28;8885;-76
2023/12/18 02:07:47;;;;;;;;;72.75;60.75;;;;;3.18;45.90;101342.34;5023928;28;8955;-75
2023/12/18 02:10:17;;;;;;;;;68.75;54.00;;;;;3.25;46.08;101344.34;5025927;28;8867;-80
2023/12/18 02:12:46;;;;;;;;;60.75;49.75;;;;;3.18;45.62;101345.84;4993614;28;8875;-76
2023/12/18 02:15:15;;;;;;;;;65.75;53.25;;;;;3.27;45.38;101339.22;5028664;28;8871;-75
2023/12/18 02:17:45;;;;;;;;;66.75;54.75;;;;;3.28;45.78;101327.97;5028443;28;8832;-76
2023/12/18 02:20:14;;;;;;;;;68.75;55.50;;;;;3.25;45.66;101320.06;5024356;28;8928;-76
2023/12/18 02:22:52;;;;;;;;;58.50;47.25;;;;;3.28;45.83;101317.56;5043248;28;8852;-76
2023/12/18 02:25:21;;;;;;;;;53.50;46.25;;;;;3.30;45.63;101322.03;5009457;28;8985;-75
2023/12/18 02:27:51;;;;;;;;;62.25;50.50;;;;;3.26;44.88;101314.03;5008744;28;8869;-76
2023/12/18 02:30:22;;;;;;;;;62.50;51.75;;;;;3.32;45.41;101319.47;5008736;28;8858;-78
2023/12/18 02:32:52;;;;;;;;;72.25;55.75;;;;;3.38;44.71;101315.38;5022677;28;8854;-76
2023/12/18 02:35:21;;;;;;;;;73.25;60.00;;;;;3.46;45.20;101304.41;5040018;28;8878;-76
2023/12/18 02:37:50;;;;;;;;;75.00;60.25;;;;;3.48;44.67;101301.03;5025972;28;8879;-75
2023/12/18 02:40:20;;;;;;;;;75.00;60.75;;;;;3.42;45.42;101295.63;5027066;28;8870;-76
2023/12/18 02:42:49;;;;;;;;;68.75;55.25;;;;;3.36;44.96;101284.97;5028351;28;8843;-75
2023/12/18 02:45:18;;;;;;;;;81.75;62.50;;;;;3.38;44.78;101297.19;5028786;28;9626;-74
2023/12/18 02:47:47;;;;;;;;;76.50;58.00;;;;;3.48;45.63;101300.16;5030867;28;8861;-76
2023/12/18 02:50:17;;;;;;;;;65.25;54.00;;;;;3.42;45.13;101298.22;5030183;28;9060;-76
2023/12/18 02:52:46;;;;;;;;;87.67;69.00;;;;;3.50;45.05;101308.91;5013411;28;8854;-77
2023/12/18 02:55:15;;;;;;;;;92.00;73.33;;;;;3.53;44.90;101306.41;5010613;28;9121;-74
2023/12/18 02:57:45;;;;;;;;;96.50;81.25;;;;;3.56;44.69;101317.81;4996119;28;9503;-76
2023/12/18 03:00:15;;;;;;;;;73.00;54.00;;;;;3.56;44.56;101315.22;5023195;28;10039;-75
2023/12/18 03:02:44;;;;;;;;;73.75;60.75;;;;;3.57;44.76;101310.88;4990212;28;8878;-77
2023/12/18 03:05:14;;;;;;;;;43.25;36.25;;;;;3.51;44.24;101311.56;4990172;28;8912;-77
2023/12/18 03:07:43;;;;;;;;;45.00;40.25;;;;;3.52;44.70;101315.03;5007493;28;8937;-77
2023/12/18 03:10:12;;;;;;;;;58.50;48.75;;;;;3.31;45.24;101315.09;5004691;28;8898;-75
2023/12/18 03:12:41;;;;;;;;;63.00;47.75;;;;;3.40;44.61;101313.72;5027683;28;9726;-74
2023/12/18 03:15:12;;;;;;;;;56.50;48.00;;;;;3.48;45.25;101314.03;4994012;28;8867;-79
2023/12/18 03:17:41;;;;;;;;;62.25;52.25;;;;;3.53;44.55;101306.41;5026813;28;9648;-76
2023/12/18 03:20:11;;;;;;;;;64.00;52.25;;;;;3.54;44.77;101306.47;5014687;28;8988;-76
2023/12/18 03:22:40;;;;;;;;;58.75;48.00;;;;;3.61;45.16;101311.88;5007038;28;9079;-76
2023/12/18 03:25:09;;;;;;;;;53.25;45.75;;;;;3.65;44.58;101299.03;5019392;28;8867;-74
2023/12/18 03:27:39;;;;;;;;;52.75;45.00;;;;;3.67;44.39;101296.50;5029135;28;9676;-76
2023/12/18 03:30:08;;;;;;;;;54.50;45.00;;;;;3.57;45.13;101288.38;5026998;28;8871;-76
2023/12/18 03:32:39;;;;;;;;;54.00;46.00;;;;;3.46;45.17;101297.50;4981984;28;8842;-77
2023/12/18 03:35:09;;;;;;;;;52.75;46.00;;;;;3.42;45.09;101305.13;4990136;28;8862;-76
2023/12/18 03:37:38;;;;;;;;;64.00;50.50;;;;;3.50;44.97;101307.16;5013120;28;8877;-76
2023/12/18 03:40:08;;;;;;;;;58.75;49.50;;;;;3.52;44.80;101300.31;5022141;28;8855;-76
2023/12/18 03:42:38;;;;;;;;;58.25;45.75;;;;;3.57;44.10;101301.38;5032007;28;8874;-75
2023/12/18 03:45:09;;;;;;;;;46.00;39.50;;;;;3.62;44.71;101287.63;5019076;28;8890;-76
2023/12/18 03:47:39;;;;;;;;;57.00;49.00;;;;;3.67;44.74;101289.56;5011618;28;9585;-78
2023/12/18 03:50:10;;;;;;;;;54.75;44.00;;;;;3.69;44.15;101284.44;5011748;28;8882;-77
2023/12/18 03:52:39;;;;;;;;;61.75;51.75;;;;;3.72;43.63;101293.22;5023195;28;8875;-76
2023/12/18 03:55:08;;;;;;;;;67.00;51.75;;;;;3.71;44.17;101285.38;5009891;28;8863;-75
2023/12/18 03:57:37;;;;;;;;;53.25;46.50;;;;;3.72;44.00;101282.81;4996852;28;8982;-75
2023/12/18 04:00:07;;;;;;;;;60.50;50.00;;;;;3.59;44.25;101281.50;5031385;28;9775;-75
2023/12/18 04:02:41;;;;;;;;;59.25;49.75;;;;;3.67;43.92;101283.50;5013187;28;8859;-75
2023/12/18 04:05:10;;;;;;;;;64.50;53.25;;;;;3.65;44.12;101277.34;5031178;28;8863;-76
2023/12/18 04:07:39;;;;;;;;;68.75;54.50;;;;;3.64;44.35;101285.97;5012915;28;8855;-77
2023/12/18 04:10:09;;;;;;;;;75.00;59.75;;;;;3.62;44.59;101292.84;5028527;28;8848;-76
2023/12/18 04:12:39;;;;;;;;;81.50;63.25;;;;;3.41;44.59;101296.41;5029760;28;8867;-77
2023/12/18 04:15:09;;;;;;;;;94.75;73.00;;;;;3.16;45.33;101307.59;5029614;28;9479;-76
2023/12/18 04:17:38;;;;;;;;;84.00;64.00;;;;;3.25;45.79;101302.75;4949407;28;9735;-78
2023/12/18 04:20:10;;;;;;;;;73.75;59.50;;;;;3.33;45.59;101296.13;5030868;28;8951;-76
2023/12/18 04:22:39;;;;;;;;;81.67;65.67;;;;;3.35;44.78;101298.78;4994780;28;8980;-75
2023/12/18 04:25:08;;;;;;;;;98.25;86.25;;;;;3.40;45.44;101302.44;5011779;28;9031;-78
2023/12/18 04:27:37;;;;;;;;;112.50;100.75;;;;;3.44;45.10;101303.47;5013597;28;9914;-74
2023/12/18 04:30:07;;;;;;;;;73.00;60.00;;;;;3.44;45.39;101299.16;5014678;28;11504;-76
2023/12/18 04:32:36;;;;;;;;;90.67;69.00;;;;;3.47;45.21;101298.38;4995807;28;8960;-80
2023/12/18 04:35:05;;;;;;;;;89.50;70.75;;;;;3.44;45.22;101291.34;5008396;28;9486;-75
2023/12/18 04:37:36;;;;;;;;;87.67;69.67;;;;;3.31;44.98;101289.97;5009817;28;9487;-76
2023/12/18 04:40:06;;;;;;;;;69.25;56.75;;;;;3.33;45.11;101297.84;5009656;28;9326;-75
2023/12/18 04:42:35;;;;;;;;;93.33;71.67;;;;;3.35;44.89;101296.19;4944122;28;8868;-74
2023/12/18 04:45:05;;;;;;;;;96.25;83.25;;;;;3.38;45.05;101296.31;5017875;28;9552;-78
2023/12/18 04:47:34;;;;;;;;;87.67;69.00;;;;;3.38;45.37;101291.97;5025578;28;9741;-75
2023/12/18 04:50:03;;;;;;;;;79.50;61.25;;;;;3.38;44.60;101281.59;5010141;28;9327;-77
2023/12/18 04:52:32;;;;;;;;;79.25;61.50;;;;;3.37;45.13;101291.94;5024981;28;8870;-75
2023/12/18 04:55:02;;;;;;;;;57.50;47.75;;;;;3.33;45.10;101285.72;4991827;28;8860;-76
2023/12/18 04:57:32;;;;;;;;;54.75;46.00;;;;;3.36;45.14;101287.56;5009025;28;8941;-75
2023/12/18 05:00:01;;;;;;;;;74.00;60.00;;;;;3.38;44.89;101285.91;5008970;28;9680;-77
2023/12/18 05:02:32;;;;;;;;;73.00;59.25;;;;;3.31;45.21;101291.72;5010151;28;8843;-76
2023/12/18 05:05:01;;;;;;;;;78.25;60.00;;;;;3.22;45.40;101299.16;5009961;28;8904;-77
2023/12/18 05:07:30;;;;;;;;;72.50;60.00;;;;;3.22;44.91;101315.63;4976220;28;8865;-76
2023/12/18 05:09:59;;;;;;;;;81.33;66.33;;;;;3.29;44.95;101320.22;5009837;28;8892;-77
2023/12/18 05:12:30;;;;;;;;;83.33;66.00;;;;;3.28;45.69;101307.19;5011479;28;9084;-75
2023/12/18 05:14:59;;;;;;;;;90.75;74.25;;;;;3.24;45.33;101314.00;5010971;28;9278;-76
2023/12/18 05:17:32;;;;;;;;;88.00;68.67;;;;;3.26;45.56;101317.53;5010700;28;9690;-75
2023/12/18 05:20:01;;;;;;;;;88.33;70.67;;;;;3.28;45.51;101318.47;5021439;28;9579;-75
2023/12/18 05:22:31;;;;;;;;;87.67;69.00;;;;;3.30;46.27;101326.31;5014565;28;9405;-76
2023/12/18 05:24:59;;;;;;;;;76.00;60.25;;;;;3.32;45.74;101328.16;5007295;28;9354;-76
2023/12/18 05:27:30;;;;;;;;;81.75;63.75;;;;;3.31;45.80;101328.09;5024093;28;8883;-76
2023/12/18 05:29:59;;;;;;;;;72.50;59.00;;;;;3.31;45.21;101331.56;5020299;28;9624;-76
2023/12/18 05:32:28;;;;;;;;;74.75;60.50;;;;;3.31;45.85;101320.28;5008652;28;8849;-75
2023/12/18 05:34:57;;;;;;;;;73.25;60.25;;;;;3.33;45.41;101326.44;5009626;28;8948;-76
2023/12/18 05:37:26;;;;;;;;;68.75;55.75;;;;;3.30;45.40;101324.63;5009397;28;8839;-77
2023/12/18 05:39:55;;;;;;;;;66.00;55.50;;;;;3.33;45.64;101323.84;5008142;28;8874;-79
2023/12/18 05:42:24;;;;;;;;;65.75;52.50;;;;;3.30;45.09;101316.81;4987296;28;8881;-75
2023/12/18 05:44:54;;;;;;;;;67.50;55.75;;;;;3.32;45.59;101306.50;5031501;28;8867;-76
2023/12/18 05:47:23;;;;;;;;;64.50;53.00;;;;;3.32;45.33;101307.38;5028223;28;8890;-79
2023/12/18 05:49:52;;;;;;;;;73.25;58.00;;;;;3.30;45.30;101309.03;5027335;28;8864;-77
2023/12/18 05:52:22;;;;;;;;;69.00;56.00;;;;;3.30;45.05;101305.50;5044119;28;8851;-76
2023/12/18 05:54:51;;;;;;;;;67.00;55.75;;;;;3.30;45.73;101298.63;5013563;28;9672;-75
2023/12/18 05:57:20;;;;;;;;;64.00;53.75;;;;;3.32;45.62;101301.28;5009437;28;8850;-78
2023/12/18 05:59:49;;;;;;;;;68.75;52.50;;;;;3.35;45.61;101301.38;5009284;28;8870;-74
2023/12/18 06:02:19;;;;;;;;;67.25;54.50;;;;;3.37;45.36;101298.03;5009133;28;8885;-75
2023/12/18 06:04:48;;;;;;;;;61.50;51.25;;;;;3.36;45.35;101295.38;5007721;28;8842;-76
2023/12/18 06:07:17;;;;;;;;;67.00;53.50;;;;;3.37;44.78;101295.44;5009358;28;8864;-76
2023/12/18 06:09:46;;;;;;;;;72.00;58.25;;;;;3.20;45.92;101297.41;5018105;28;8856;-74
2023/12/18 06:12:16;;;;;;;;;71.50;57.00;;;;;3.28;45.03;101289.88;5029729;28;8984;-75
2023/12/18 06:14:44;;;;;;;;;77.25;61.75;;;;;3.15;44.95;101293.75;5025245;28;8925;-75
2023/12/18 06:17:14;;;;;;;;;81.00;65.25;;;;;3.17;45.82;101288.59;5025404;28;8855;-74
2023/12/18 06:19:44;;;;;;;;;72.25;58.75;;;;;3.20;45.26;101287.00;5040338;28;8866;-76
2023/12/18 06:22:13;;;;;;;;;77.75;60.50;;;;;3.24;45.15;101289.69;5007515;28;8971;-75
2023/12/18 06:24:42;;;;;;;;;79.67;63.67;;;;;3.27;45.68;101292.44;5008911;28;8862;-77
2023/12/18 06:27:11;;;;;;;;;76.75;62.25;;;;;3.32;45.03;101293.50;5010742;28;8847;-76
2023/12/18 06:29:41;;;;;;;;;75.50;60.25;;;;;3.40;45.33;101295.53;5027187;28;8860;-76
2023/12/18 06:32:13;;;;;;;;;77.00;63.25;;;;;3.43;45.09;101292.22;5013320;28;8858;-78
2023/12/18 06:34:44;;;;;;;;;81.67;64.33;;;;;3.47;45.50;101293.16;5026479;28;8868;-77
2023/12/18 06:37:13;;;;;;;;;81.00;64.00;;;;;3.52;45.15;101284.72;5018898;28;8969;-77
2023/12/18 06:39:42;;;;;;;;;76.50;61.25;;;;;3.55;44.94;101292.63;5008562;28;8960;-75
2023/12/18 06:42:12;;;;;;;;;82.25;64.75;;;;;3.58;44.42;101297.03;5007905;28;9615;-78
2023/12/18 06:44:40;;;;;;;;;85.33;68.33;;;;;3.63;44.56;101289.44;5010208;28;8918;-78
2023/12/18 06:47:10;;;;;;;;;91.25;69.50;;;;;3.67;44.94;101294.78;5007930;28;9277;-76
2023/12/18 06:49:38;;;;;;;;;89.25;70.00;;;;;3.73;44.52;101297.63;5024014;28;9487;-78
2023/12/18 06:52:09;;;;;;;;;97.50;80.00;;;;;3.69;44.54;101295.72;5008374;28;9882;-79
2023/12/18 06:54:38;;;;;;;;;93.25;79.75;;;;;3.73;44.90;101301.91;5026593;28;10159;-76
2023/12/18 06:57:07;;;;;;;;;93.75;77.50;;;;;3.75;44.28;101297.63;5029064;28;9874;-79
2023/12/18 06:59:36;;;;;;;;;99.00;87.25;;;;;3.82;44.23;101302.22;5027955;28;10550;-75
2023/12/18 07:02:05;;;;;;;;;100.00;89.50;;;;;3.90;44.88;101306.00;4971873;28;10166;-77
2023/12/18 07:04:34;;;;;;;;;101.50;92.25;;;;;3.96;44.37;101310.53;5017062;28;10521;-76
2023/12/18 07:07:03;;;;;;;;;99.25;82.50;;;;;4.02;44.15;101315.94;5008641;28;10841;-78
2023/12/18 07:09:33;;;;;;;;;104.25;92.00;;;;;4.14;44.34;101307.66;5008484;28;10452;-79
2023/12/18 07:12:04;;;;;;;;;95.00;80.50;;;;;4.18;44.05;101319.94;5016378;28;10590;-77
2023/12/18 07:14:33;;;;;;;;;97.00;79.50;;;;;4.24;43.82;101314.94;5026052;28;10046;-79
2023/12/18 07:17:02;;;;;;;;;93.50;78.25;;;;;4.34;43.93;101310.94;5010669;28;10150;-77
2023/12/18 07:19:31;;;;;;;;;96.00;80.25;;;;;4.36;43.83;101320.56;5027679;28;9749;-80
2023/12/18 07:22:00;;;;;;;;;95.50;79.50;;;;;4.42;43.52;101319.88;5027650;28;10357;-79
2023/12/18 07:24:29;;;;;;;;;91.50;74.75;;;;;4.52;43.16;101321.94;4973359;28;10113;-79
2023/12/18 07:27:00;;;;;;;;;92.75;76.75;;;;;4.65;43.19;101305.00;5009411;28;9964;-79
2023/12/18 07:29:29;;;;;;;;;105.75;96.50;;;;;4.72;43.23;101300.88;4993095;28;9739;-81
2023/12/18 07:31:58;;;;;;;;;52.50;40.00;;;;;4.86;43.10;101311.72;5008962;28;12235;-75
2023/12/18 07:34:27;;;;;;;;;102.00;95.00;;;;;4.76;43.11;101303.59;4994094;28;10571;-76
2023/12/18 07:36:57;;;;;;;;;100.50;87.75;;;;;4.86;42.74;101303.91;5010029;28;10871;-75
2023/12/18 07:39:26;;;;;;;;;102.75;92.75;;;;;4.97;43.05;101306.84;5025496;28;10837;-77
2023/12/18 07:41:55;;;;;;;;;95.25;81.75;;;;;5.07;42.82;101314.09;4974363;28;10846;-77
2023/12/18 07:44:25;;;;;;;;;99.25;90.00;;;;;5.24;42.55;101304.16;4992731;28;10682;-78
2023/12/18 07:46:54;;;;;;;;;101.00;93.25;;;;;5.34;42.21;101309.72;5008729;28;11072;-78
2023/12/18 07:49:24;;;;;;;;;88.00;69.25;;;;;5.42;41.25;101306.47;4990224;28;11067;-76
2023/12/18 07:51:53;;;;;;;;;106.25;94.25;;;;;5.57;41.74;101305.97;5026943;28;9436;-78
2023/12/18 07:54:22;;;;;;;;;106.50;97.25;;;;;5.66;41.46;101303.63;5020117;28;10497;-78
2023/12/18 07:56:51;;;;;;;;;110.25;105.25;;;;;5.76;41.47;101300.44;5013253;28;10937;-78
2023/12/18 07:59:20;;;;;;;;;104.50;98.50;;;;;5.90;41.37;101304.28;5010103;28;11423;-79
2023/12/18 08:01:51;;;;;;;;;94.25;82.00;;;;;6.06;40.50;101312.56;5029206;28;11117;-78
2023/12/18 08:04:20;;;;;;;;;85.75;70.50;;;;;6.11;40.45;101308.31;5025227;28;10144;-78
2023/12/18 08:06:52;;;;;;;;;80.00;64.00;;;;;6.21;39.76;101317.25;5012750;28;9803;-78
2023/12/18 08:09:21;;;;;;;;;80.00;65.33;;;;;6.26;39.54;101319.13;5012670;28;9311;-79
2023/12/18 08:11:50;;;;;;;;;87.50;72.00;;;;;6.21;39.51;101320.78;5011821;28;9270;-78
2023/12/18 08:14:19;;;;;;;;;87.00;73.75;;;;;6.26;40.07;101318.25;5026930;28;9758;-78
2023/12/18 08:16:48;;;;;;;;;83.50;69.75;;;;;6.34;39.62;101314.09;5010467;28;9474;-80
2023/12/18 08:19:19;;;;;;;;;81.33;66.33;;;;;6.37;38.91;101315.94;5011618;28;9464;-78
2023/12/18 08:21:48;;;;;;;;;95.50;80.00;;;;;6.44;39.90;101321.34;5012324;28;9988;-78
2023/12/18 08:24:17;;;;;;;;;81.00;64.67;;;;;6.51;39.11;101307.59;5010022;28;9849;-76
2023/12/18 08:26:47;;;;;;;;;73.25;57.25;;;;;6.65;38.72;101310.50;4961791;28;9182;-79
2023/12/18 08:29:16;;;;;;;;;76.25;60.00;;;;;6.80;38.97;101306.50;5009892;28;9603;-77
2023/12/18 08:31:45;;;;;;;;;85.00;67.33;;;;;6.94;38.50;101299.00;5011338;28;8943;-77
2023/12/18 08:34:14;;;;;;;;;85.75;72.75;;;;;7.04;38.57;101294.00;5009946;28;9271;-79
2023/12/18 08:36:45;;;;;;;;;93.00;80.25;;;;;7.11;38.65;101300.25;4977270;28;9816;-76
2023/12/18 08:39:14;;;;;;;;;90.25;77.50;;;;;7.18;37.62;101303.88;5012351;28;10172;-77
2023/12/18 08:41:45;;;;;;;;;83.67;64.33;;;;;7.29;37.49;101302.38;4994427;28;10095;-77
2023/12/18 08:44:14;;;;;;;;;79.33;62.67;;;;;7.37;37.25;101298.16;5015543;28;8973;-80
2023/12/18 08:46:43;;;;;;;;;80.00;62.75;;;;;7.46;37.28;101300.97;5016171;28;8974;-77
2023/12/18 08:49:12;;;;;;;;;83.33;64.67;;;;;7.57;36.61;101290.72;5013527;28;8854;-79
2023/12/18 08:51:42;;;;;;;;;87.33;72.00;;;;;7.61;37.33;101292.56;5011573;28;9027;-78
2023/12/18 08:54:12;;;;;;;;;82.67;64.67;;;;;7.66;36.81;101295.25;5011279;28;9359;-76
2023/12/18 08:56:41;;;;;;;;;74.75;58.25;;;;;7.77;36.61;101293.72;5011697;28;9023;-76
2023/12/18 08:59:11;;;;;;;;;77.50;60.75;;;;;7.77;35.91;101298.06;5011265;28;8862;-80
2023/12/18 09:01:40;;;;;;;;;62.25;51.25;;;;;7.82;35.04;101297.31;5010095;28;8839;-78
2023/12/18 09:04:09;;;;;;;;;72.50;57.25;;;;;7.87;35.71;101290.44;5011109;28;8881;-79
2023/12/18 09:06:39;;;;;;;;;68.75;56.75;;;;;7.92;35.37;101284.38;5009808;28;8854;-80
2023/12/18 09:09:08;;;;;;;;;73.00;58.75;;;;;7.96;35.63;101273.97;5011199;28;9041;-78
2023/12/18 09:11:39;;;;;;;;;70.75;55.50;;;;;8.02;35.54;101270.59;5010725;28;8870;-77
2023/12/18 09:14:07;;;;;;;;;79.00;60.00;;;;;8.02;34.91;101263.63;5011422;28;8937;-78
2023/12/18 09:16:36;;;;;;;;;62.75;50.50;;;;;8.05;34.94;101265.41;5010586;28;8890;-78
2023/12/18 09:19:06;;;;;;;;;66.75;52.50;;;;;8.12;34.53;101264.66;4976865;28;8899;-77
2023/12/18 09:21:35;;;;;;;;;64.25;53.25;;;;;8.09;33.81;101263.72;5010548;28;8852;-78
2023/12/18 09:24:05;;;;;;;;;75.50;58.25;;;;;8.16;35.03;101257.75;4976978;28;8933;-77
2023/12/18 09:26:34;;;;;;;;;60.50;49.25;;;;;8.23;34.09;101259.56;5025373;28;8893;-77
2023/12/18 09:29:04;;;;;;;;;56.25;45.75;;;;;8.34;33.90;101255.44;4976159;28;8853;-76
2023/12/18 09:31:34;;;;;;;;;47.50;41.00;;;;;8.23;32.80;101255.25;5009225;28;8872;-78
2023/12/18 09:34:03;;;;;;;;;32.00;30.50;;;;;8.04;32.51;101259.31;5009428;28;8955;-78
2023/12/18 09:36:32;;;;;;;;;42.00;37.00;;;;;8.14;32.89;101257.72;5033380;28;8916;-75
2023/12/18 09:39:01;;;;;;;;;39.00;36.25;;;;;8.02;33.34;101253.16;5021520;28;8843;-77
2023/12/18 09:41:30;;;;;;;;;35.00;32.25;;;;;8.08;33.89;101247.13;5045427;28;8956;-77
2023/12/18 09:44:00;;;;;;;;;42.00;38.50;;;;;8.21;33.51;101237.72;5030321;28;9699;-79
2023/12/18 09:46:31;;;;;;;;;50.00;42.00;;;;;8.19;34.18;101234.19;5035961;28;8848;-77
2023/12/18 09:49:00;;;;;;;;;43.50;37.25;;;;;8.26;33.67;101229.06;5000343;28;9610;-78
2023/12/18 09:51:29;;;;;;;;;54.75;45.00;;;;;8.39;33.88;101229.31;5000083;28;8847;-78
2023/12/18 09:53:59;;;;;;;;;54.75;46.00;;;;;8.51;34.27;101224.22;5025317;28;8854;-80
2023/12/18 09:56:29;;;;;;;;;59.50;46.00;;;;;8.39;33.60;101221.44;5010709;28;8838;-79
2023/12/18 09:59:02;;;;;;;;;49.25;42.00;;;;;8.64;33.93;101217.44;5012421;28;8873;-77
2023/12/18 10:01:34;;;;;;;;;54.50;46.00;;;;;8.68;34.25;101211.38;5043024;28;8850;-79
2023/12/18 10:04:03;;;;;;;;;56.50;45.00;;;;;8.66;34.54;101210.47;5041942;28;8877;-79
2023/12/18 10:06:32;;;;;;;;;51.00;44.00;;;;;8.75;34.08;101200.09;4991284;28;8846;-79
2023/12/18 10:09:03;;;;;;;;;54.25;44.25;;;;;8.80;33.93;101203.69;4959888;28;8886;-78
2023/12/18 10:11:32;;;;;;;;;58.00;48.50;;;;;8.48;34.17;101212.81;5012646;28;8843;-78
2023/12/18 10:14:01;;;;;;;;;36.75;34.25;;;;;8.53;33.81;101203.28;5030385;28;8876;-78
2023/12/18 10:16:33;;;;;;;;;50.25;42.00;;;;;8.68;33.86;101197.38;4995618;28;9615;-79
2023/12/18 10:19:03;;;;;;;;;51.25;42.00;;;;;8.80;33.44;101195.81;5029785;28;8868;-77
2023/12/18 10:21:32;;;;;;;;;53.75;44.50;;;;;8.94;33.50;101182.00;5045508;28;8932;-81
2023/12/18 10:24:02;;;;;;;;;51.00;42.75;;;;;9.08;33.46;101180.38;5045737;28;8903;-76
2023/12/18 10:26:31;;;;;;;;;62.75;50.00;;;;;8.95;33.01;101174.16;5033563;28;8907;-78
2023/12/18 10:29:00;;;;;;;;;56.50;46.25;;;;;8.84;32.78;101174.00;5038034;28;8883;-77
2023/12/18 10:31:30;;;;;;;;;58.00;46.00;;;;;9.01;32.52;101176.84;5033936;28;8855;-77
2023/12/18 10:34:02;;;;;;;;;51.75;41.50;;;;;9.18;32.63;101173.53;5029771;28;8866;-77
2023/12/18 10:36:33;;;;;;;;;51.00;42.75;;;;;9.35;32.31;101169.34;5021560;28;8858;-78
2023/12/18 10:39:03;;;;;;;;;51.25;43.75;;;;;9.40;32.86;101162.41;4943985;28;8870;-78
2023/12/18 10:41:35;;;;;;;;;57.00;47.50;;;;;9.56;32.71;101160.78;5009911;28;8924;-79
2023/12/18 10:44:05;;;;;;;;;56.00;46.75;;;;;9.66;32.46;101156.53;4960216;28;8882;-77
2023/12/18 10:46:35;;;;;;;;;57.50;47.75;;;;;9.76;31.88;101157.47;5039268;28;8852;-80
2023/12/18 10:49:08;;;;;;;;;49.00;41.75;;;;;9.82;32.14;101154.91;5027804;28;8886;-81
2023/12/18 10:51:39;;;;;;;;;52.25;44.50;;;;;9.95;31.93;101148.00;5028985;28;8832;-80
2023/12/18 10:54:10;;;;;;;;;52.00;44.00;;;;;10.07;31.90;101137.59;5028335;28;8982;-77
2023/12/18 10:56:40;;;;;;;;;56.25;46.00;;;;;10.24;31.42;101135.06;5028781;28;8859;-77
2023/12/18 10:59:13;;;;;;;;;52.75;43.00;;;;;10.32;31.29;101135.09;5028589;28;8871;-79
2023/12/18 11:01:42;;;;;;;;;62.00;50.00;;;;;10.40;31.31;101120.25;5017053;28;8830;-78
2023/12/18 11:04:14;;;;;;;;;58.25;46.25;;;;;10.44;31.27;101116.75;5008742;28;8912;-78
2023/12/18 11:06:45;;;;;;;;;58.00;48.50;;;;;9.84;30.45;101126.00;5009110;28;8881;-78
2023/12/18 11:09:13;;;;;;;;;52.75;44.25;;;;;9.87;30.47;101118.16;5007653;28;8907;-79
2023/12/18 11:11:43;;;;;;;;;51.00;41.75;;;;;9.32;29.92;101111.56;5023935;28;8842;-81
2023/12/18 11:14:22;;;;;;;;;51.75;41.50;;;;;9.04;29.94;101121.78;5040322;28;9005;-77
2023/12/18 11:17:05;;;;;;;;;48.25;39.50;;;;;9.32;29.10;101116.81;5009586;28;8858;-80
2023/12/18 11:19:45;;;;;;;;;54.75;44.75;;;;;9.49;30.84;101114.34;5009762;28;8858;-79
2023/12/18 11:22:16;;;;;;;;;48.00;40.00;;;;;9.74;30.80;101109.31;5010394;28;8885;-79
2023/12/18 11:24:46;;;;;;;;;59.25;50.00;;;;;9.90;31.45;101098.06;5014582;28;8943;-78
2023/12/18 11:27:18;;;;;;;;;65.50;49.75;;;;;10.07;31.65;101092.91;5009040;28;8892;-78
2023/12/18 11:29:49;;;;;;;;;65.00;52.00;;;;;10.18;31.82;101080.72;5008872;28;9615;-79
2023/12/18 11:32:43;;;;;;;;;65.75;52.50;;;;;10.43;31.89;101085.22;5028454;28;8852;-77
2023/12/18 11:35:15;;;;;;;;;65.50;52.25;;;;;10.33;31.59;101073.75;5043958;28;9605;-78